Pagrindinis puslapis
METAR-TAF:

METAR-TAF

Oro uostai :

Anceranana, Madagaskaras

platuma: 12-21S, ilguma: 049-18E, Aukštis: 114 m

Dabartinis oras

Ataskaita buvo paskelbta 5 valandos ir 36 minutes, ne 15:00 UTC
Vėjas 16 kt iš Pietryčių
Temperatūra 25°C
Drėgmė 65%
Slėgis 1014 hPa
Matomumas 10 km arba daugiau
Mažai debesys ne aukštis 2000 ft
Išsisklaidę debesys ne aukštis 4000 ft

METAR: FMNA 221500Z 14016KT 9999 FEW020 SCT040 25/18 Q1014

Laikas: 23:36 (20:36 UTC)

Prognozė

Ataskaita buvo paskelbta 3 valandos ir 36 minutes, ne 17:00 UTC
Prognozė galioja nuo 22 metu 18 UTC su 23 metu 18 UTC
Vėjas 15 kt iš Pietryčių su gūsio iki 25 kt
Matomumas 10 km arba daugiau
Mažai debesys ne aukštis 2000 ft
Išsisklaidę debesys ne aukštis 4000 ft

TAF: FMNA 221700Z 2218/2318 14015G25KT 9999 FEW020 SCT040

Orai ataskaitas ir orų prognozės (METAR, TAF).

turimą stotys yra geltonos ir raudonos taškus žemėlapyje.

Perkelti pele per norėdami pamatyti stoties vardą.

Tada spustelėkite, norėdami matyti oro stebėjimo ir prognozės.

Norėdami pakeisti žemėlapį: spustelėkite ant žalios mygtukų su juodo kryžiaus žemyn,; žalią mygtuką su brūkšneliu, jei norite nutolinti; arba žalių rodyklių gretimoms žemėlapius.


METAR-TAF: